Time;durP1;ratioP1;P1;durP2;ratioP2;P2;SDS_P1;SDS_P2;PMS_P1;PMS_P2;Temp;Humidity;BMP_temperature;BMP_pressure;BME280_temperature;BME280_humidity;BME280_pressure;Samples;Min_cycle;Max_cycle;Signal;HPM_P1;HPM_P2
2021/08/27 05:00:49;;;;;;;;;;;;;;;;;;;;;
2021/08/27 05:03:21;;;;;;;19.17;11.18;;;13.80;82.00;;;;;;4916171;29;20067;-86
2021/08/27 05:09:16;;;;;;;;;;;;;;;;;;;;;
2021/08/27 05:15:01;;;;;;;12.93;6.93;;;13.80;81.70;;;;;;4880085;29;20028;-86
2021/08/27 05:17:27;;;;;;;14.43;7.53;;;13.90;81.80;;;;;;4901782;29;20119;-83
2021/08/27 05:19:52;;;;;;;13.80;7.97;;;13.90;81.80;;;;;;4909568;29;20115;-83
2021/08/27 05:22:21;;;;;;;16.65;8.57;;;13.90;81.90;;;;;;4897720;29;20028;-83
2021/08/27 05:24:47;;;;;;;14.35;7.85;;;13.90;81.80;;;;;;4897822;29;20124;-83
2021/08/27 05:27:13;;;;;;;14.20;7.88;;;13.90;81.80;;;;;;4899643;29;20103;-85
2021/08/27 05:29:39;;;;;;;13.68;7.68;;;13.90;81.80;;;;;;4884470;29;20060;-87
2021/08/27 05:32:05;;;;;;;16.20;8.65;;;14.00;81.80;;;;;;4900375;29;20036;-84
2021/08/27 05:34:31;;;;;;;16.65;7.72;;;13.90;81.80;;;;;;4899804;29;20031;-85
2021/08/27 05:36:58;;;;;;;15.15;8.27;;;14.00;82.00;;;;;;4870601;29;20477;-85
2021/08/27 05:39:27;;;;;;;16.77;8.35;;;14.10;81.90;;;;;;4851972;29;20031;-86
2021/08/27 05:41:54;;;;;;;15.45;8.70;;;14.10;81.90;;;;;;4904714;29;20036;-85
2021/08/27 05:44:20;;;;;;;13.68;7.30;;;14.10;82.00;;;;;;4908580;29;20084;-85
2021/08/27 05:46:46;;;;;;;11.95;7.45;;;14.20;82.20;;;;;;4887735;29;20028;-85
2021/08/27 05:49:12;;;;;;;15.80;7.88;;;14.10;82.10;;;;;;4908085;29;20016;-85
2021/08/27 05:51:37;;;;;;;15.38;7.70;;;14.20;82.10;;;;;;4906381;29;20040;-83
2021/08/27 05:54:03;;;;;;;14.55;7.57;;;14.20;82.20;;;;;;4892028;29;20029;-84
2021/08/27 05:56:29;;;;;;;14.95;8.32;;;14.30;82.40;;;;;;4906218;29;20020;-84
2021/08/27 05:58:57;;;;;;;16.33;8.20;;;14.40;83.20;;;;;;4906672;29;20025;-84
2021/08/27 06:01:23;;;;;;;13.77;7.80;;;14.50;82.70;;;;;;4889707;29;20083;-84
2021/08/27 06:03:48;;;;;;;12.05;7.82;;;14.60;82.70;;;;;;4892489;29;20488;-84
2021/08/27 06:06:14;;;;;;;14.13;7.82;;;14.70;82.50;;;;;;4891106;29;20371;-85
2021/08/27 06:08:39;;;;;;;10.77;6.90;;;14.70;82.40;;;;;;4905326;29;20037;-88
2021/08/27 06:11:05;;;;;;;12.82;7.50;;;14.60;82.20;;;;;;4918389;29;20024;-84
2021/08/27 06:13:30;;;;;;;13.07;7.90;;;14.90;82.20;;;;;;4930045;29;20432;-84
2021/08/27 06:15:57;;;;;;;11.63;7.25;;;15.00;83.00;;;;;;4927458;29;20043;-86
2021/08/27 06:18:22;;;;;;;13.80;7.40;;;15.00;82.40;;;;;;4903051;29;20040;-86
2021/08/27 06:20:51;;;;;;;13.95;7.03;;;15.20;82.40;;;;;;4900904;29;20036;-83
2021/08/27 06:23:19;;;;;;;12.95;7.20;;;15.30;82.20;;;;;;4871176;29;20037;-96
2021/08/27 06:25:45;;;;;;;13.32;7.00;;;15.20;82.50;;;;;;4903801;29;20043;-91
2021/08/27 06:28:11;;;;;;;10.27;6.03;;;15.50;82.00;;;;;;4916287;29;20420;-95
2021/08/27 06:30:37;;;;;;;9.63;5.95;;;15.60;82.00;;;;;;4923030;29;20031;-91
2021/08/27 06:33:08;;;;;;;11.68;5.95;;;15.70;82.00;;;;;;4921432;29;20087;-94
2021/08/27 06:35:35;;;;;;;10.85;6.35;;;15.90;81.90;;;;;;4908087;29;20397;-91
2021/08/27 06:40:47;;;;;;;13.02;6.30;;;16.10;81.50;;;;;;4918192;29;20032;-88
2021/08/27 06:43:13;;;;;;;9.60;5.53;;;16.30;81.40;;;;;;4903698;29;20059;-88
2021/08/27 06:45:39;;;;;;;9.43;5.53;;;16.40;81.20;;;;;;4903738;29;20488;-88
2021/08/27 06:48:09;;;;;;;8.98;5.45;;;16.40;81.10;;;;;;4921039;29;20083;-88
2021/08/27 06:50:38;;;;;;;11.02;5.60;;;16.50;80.50;;;;;;4888790;29;20029;-88
2021/08/27 06:53:07;;;;;;;10.30;5.68;;;16.60;80.40;;;;;;4904730;29;20036;-88
2021/08/27 06:55:35;;;;;;;11.90;5.43;;;16.60;80.30;;;;;;4905032;29;20047;-88
2021/08/27 06:58:01;;;;;;;9.60;5.10;;;16.70;80.30;;;;;;4906939;29;20077;-84
2021/08/27 07:00:28;;;;;;;10.65;5.32;;;16.80;80.10;;;;;;4906076;29;20028;-83
2021/08/27 07:02:54;;;;;;;11.95;4.78;;;16.90;79.90;;;;;;4887855;29;20628;-86
2021/08/27 07:05:20;;;;;;;7.95;4.25;;;16.90;79.60;;;;;;4902872;29;20115;-86
2021/08/27 07:07:46;;;;;;;10.23;4.45;;;16.90;79.80;;;;;;4887475;29;20028;-86
2021/08/27 07:10:13;;;;;;;8.73;4.25;;;17.00;79.70;;;;;;4903406;29;20091;-88
2021/08/27 07:12:39;;;;;;;7.72;3.97;;;16.90;79.40;;;;;;4903298;29;20122;-87
2021/08/27 07:15:07;;;;;;;7.30;3.83;;;17.10;79.40;;;;;;4920710;29;20107;-93
2021/08/27 07:17:34;;;;;;;8.00;4.03;;;17.20;79.10;;;;;;4906138;29;20028;-94
2021/08/27 07:20:01;;;;;;;8.40;3.90;;;17.30;79.10;;;;;;4910227;29;20036;-92
2021/08/27 07:22:26;;;;;;;8.02;3.78;;;17.30;79.30;;;;;;4921472;29;20025;-88
2021/08/27 07:24:52;;;;;;;9.80;3.58;;;17.50;79.40;;;;;;4904246;29;20036;-90
2021/08/27 07:27:18;;;;;;;7.32;3.42;;;17.60;80.10;;;;;;4904331;29;20020;-89
2021/08/27 07:29:43;;;;;;;7.68;3.80;;;17.60;78.90;;;;;;4903772;29;20032;-88
2021/08/27 07:32:12;;;;;;;6.82;3.22;;;17.70;78.10;;;;;;4889435;29;20062;-88
2021/08/27 07:34:43;;;;;;;9.02;3.78;;;17.70;78.00;;;;;;4917885;29;20017;-88
2021/08/27 07:37:12;;;;;;;7.38;3.70;;;17.80;77.50;;;;;;4924876;29;20087;-90
2021/08/27 07:39:38;;;;;;;7.78;3.15;;;17.80;77.40;;;;;;4910161;29;20358;-86
2021/08/27 07:42:05;;;;;;;12.10;3.28;;;17.90;78.10;;;;;;4903577;29;20060;-85
2021/08/27 07:44:30;;;;;;;7.40;2.80;;;18.00;77.60;;;;;;4887543;29;20453;-88
2021/08/27 07:46:57;;;;;;;6.00;3.10;;;18.20;77.20;;;;;;4887353;29;20059;-91
2021/08/27 07:49:23;;;;;;;9.48;3.20;;;18.20;76.50;;;;;;4922956;29;20052;-88
2021/08/27 07:51:51;;;;;;;7.65;3.33;;;18.40;76.40;;;;;;4900041;29;20032;-87
2021/08/27 07:54:17;;;;;;;7.10;2.80;;;18.50;77.10;;;;;;4902015;29;20115;-89
2021/08/27 07:56:46;;;;;;;6.28;2.80;;;18.60;76.80;;;;;;4911706;29;20610;-90
2021/08/27 07:59:12;;;;;;;7.80;2.83;;;18.60;76.10;;;;;;4909113;29;20024;-83
2021/08/27 08:01:38;;;;;;;5.30;2.67;;;18.60;75.70;;;;;;4853465;29;1178299;-86
2021/08/27 08:04:06;;;;;;;6.45;2.97;;;18.70;76.10;;;;;;4899054;29;20304;-95
2021/08/27 08:06:36;;;;;;;6.47;2.80;;;18.90;76.30;;;;;;4866454;29;20049;-90
2021/08/27 08:09:03;;;;;;;6.25;2.97;;;19.00;75.90;;;;;;4892926;29;20041;-85
2021/08/27 08:11:28;;;;;;;5.75;2.78;;;19.20;75.20;;;;;;4884730;29;20040;-85
2021/08/27 08:13:54;;;;;;;7.53;2.67;;;19.20;74.80;;;;;;4885074;29;20033;-85
2021/08/27 08:16:20;;;;;;;7.03;3.05;;;19.30;74.90;;;;;;4899755;29;20025;-85
2021/08/27 08:18:45;;;;;;;6.68;3.00;;;19.30;74.40;;;;;;4903940;29;20036;-85
2021/08/27 08:21:12;;;;;;;5.50;2.70;;;19.40;74.60;;;;;;4899407;29;20462;-84
2021/08/27 08:23:38;;;;;;;5.95;2.63;;;19.60;75.70;;;;;;4901611;29;20032;-85
2021/08/27 08:26:04;;;;;;;9.02;3.13;;;19.80;75.50;;;;;;4916448;29;20058;-85
2021/08/27 08:28:29;;;;;;;6.43;2.90;;;20.00;74.40;;;;;;4901519;29;20491;-85
2021/08/27 08:30:55;;;;;;;7.10;3.17;;;20.10;73.50;;;;;;4883690;29;20040;-85
2021/08/27 08:33:21;;;;;;;6.25;2.92;;;20.20;73.40;;;;;;4884926;29;20537;-85
2021/08/27 08:35:47;;;;;;;9.38;3.53;;;20.00;72.70;;;;;;4898616;29;20032;-85
2021/08/27 08:38:13;;;;;;;6.63;3.00;;;20.10;73.10;;;;;;4882124;29;20063;-85
2021/08/27 08:40:42;;;;;;;8.60;3.17;;;20.20;73.20;;;;;;4882985;29;20029;-84
2021/08/27 08:43:08;;;;;;;6.50;2.90;;;20.30;73.40;;;;;;4866776;29;20117;-85
2021/08/27 08:45:47;;;;;;;6.40;2.80;;;20.40;73.10;;;;;;4881990;29;20032;-84
2021/08/27 08:48:14;;;;;;;6.18;2.70;;;20.50;73.20;;;;;;4881482;29;20021;-85
2021/08/27 08:50:40;;;;;;;5.80;2.60;;;20.60;73.50;;;;;;4879951;29;20033;-85
2021/08/27 08:53:06;;;;;;;6.75;2.90;;;20.70;72.70;;;;;;4879672;29;20037;-86
2021/08/27 08:55:32;;;;;;;5.78;2.55;;;20.70;72.30;;;;;;4881559;29;20029;-86
2021/08/27 08:57:58;;;;;;;4.85;2.50;;;20.90;71.90;;;;;;4902318;29;20025;-85
2021/08/27 09:00:26;;;;;;;7.80;2.50;;;21.00;71.50;;;;;;4899656;29;20037;-85
2021/08/27 09:02:52;;;;;;;7.05;2.85;;;21.20;72.90;;;;;;4881243;29;20136;-85
2021/08/27 09:05:17;;;;;;;6.22;2.45;;;21.60;73.30;;;;;;4879272;29;20060;-86
2021/08/27 09:07:46;;;;;;;6.93;2.65;;;21.80;72.40;;;;;;4864117;29;20025;-86
2021/08/27 09:10:19;;;;;;;6.50;2.40;;;22.50;71.90;;;;;;4893357;29;20029;-86
2021/08/27 09:12:45;;;;;;;7.53;2.50;;;22.50;71.90;;;;;;4882338;29;20056;-86
2021/08/27 09:15:13;;;;;;;5.70;2.40;;;22.40;69.60;;;;;;4914287;29;20032;-86
2021/08/27 09:17:50;;;;;;;7.22;2.60;;;22.50;70.80;;;;;;4897823;29;20064;-86
2021/08/27 09:20:24;;;;;;;5.68;2.50;;;22.60;69.20;;;;;;4899412;29;20025;-86
2021/08/27 09:22:57;;;;;;;5.43;2.53;;;22.60;69.20;;;;;;4913798;29;20037;-86
2021/08/27 09:25:24;;;;;;;5.55;2.58;;;22.60;68.50;;;;;;4895728;29;20116;-84
2021/08/27 09:28:15;;;;;;;5.78;2.33;;;22.50;68.30;;;;;;4888189;29;20032;-93
2021/08/27 09:30:50;;;;;;;6.32;2.47;;;22.40;68.80;;;;;;4902761;29;20020;-88
2021/08/27 09:33:21;;;;;;;4.80;2.40;;;22.60;68.50;;;;;;4902020;29;20040;-89
2021/08/27 09:36:06;;;;;;;5.88;2.60;;;22.70;67.90;;;;;;4900197;29;20039;-90
2021/08/27 09:38:40;;;;;;;5.22;2.53;;;22.90;67.70;;;;;;4884367;29;20024;-92
2021/08/27 09:41:11;;;;;;;7.15;2.35;;;23.00;67.50;;;;;;4900802;29;20056;-93
2021/08/27 09:43:55;;;;;;;4.28;2.08;;;22.80;66.50;;;;;;4896773;29;20101;-94
2021/08/27 09:46:35;;;;;;;4.75;2.05;;;22.70;68.10;;;;;;4866471;29;20025;-96
2021/08/27 09:49:03;;;;;;;8.27;2.42;;;22.60;67.80;;;;;;4866053;29;20037;-95
2021/08/27 09:51:40;;;;;;;5.07;2.00;;;22.50;67.30;;;;;;4866170;29;20041;-94
2021/08/27 09:54:19;;;;;;;3.95;2.00;;;22.30;67.60;;;;;;4883337;29;20381;-94
2021/08/27 09:57:00;;;;;;;5.22;2.10;;;22.10;68.60;;;;;;4874616;29;20021;-93
2021/08/27 09:59:35;;;;;;;6.32;2.00;;;22.10;68.00;;;;;;4898734;29;20108;-92
2021/08/27 10:02:05;;;;;;;3.97;1.98;;;22.10;67.10;;;;;;4899582;29;20057;-89
2021/08/27 10:04:31;;;;;;;3.13;1.90;;;22.00;66.30;;;;;;4898997;29;20076;-90
2021/08/27 10:06:58;;;;;;;6.20;2.20;;;21.70;66.50;;;;;;4900082;29;20032;-92
2021/08/27 10:09:59;;;;;;;4.88;2.40;;;21.80;66.20;;;;;;4897317;29;20029;-90
2021/08/27 10:12:30;;;;;;;8.00;2.40;;;21.90;66.40;;;;;;4891402;29;20041;-91
2021/08/27 10:15:05;;;;;;;4.85;2.17;;;22.10;65.80;;;;;;4899335;29;20033;-91
2021/08/27 10:17:33;;;;;;;4.88;2.13;;;21.70;66.60;;;;;;4903492;29;20032;-88
2021/08/27 10:20:07;;;;;;;5.78;2.40;;;21.60;67.40;;;;;;4918121;29;20017;-88
2021/08/27 10:22:36;;;;;;;6.35;2.42;;;21.40;66.00;;;;;;4924975;29;20045;-80
2021/08/27 10:25:08;;;;;;;5.43;2.40;;;21.10;65.90;;;;;;4905303;29;20078;-86
2021/08/27 10:27:35;;;;;;;5.43;2.30;;;21.30;66.30;;;;;;4887620;29;20040;-86
2021/08/27 10:30:00;;;;;;;6.75;2.53;;;21.30;66.50;;;;;;4894545;29;20080;-88
2021/08/27 10:32:38;;;;;;;4.57;2.20;;;21.20;66.20;;;;;;4903450;29;20384;-90
2021/08/27 10:35:05;;;;;;;8.07;2.67;;;21.20;67.10;;;;;;4886934;29;20039;-87
2021/08/27 10:37:48;;;;;;;5.47;2.20;;;21.30;67.70;;;;;;4902236;29;20116;-87
2021/08/27 10:40:24;;;;;;;3.70;2.00;;;21.50;69.00;;;;;;4887044;29;20047;-87
2021/08/27 10:42:51;;;;;;;4.18;2.00;;;22.30;68.80;;;;;;4888035;29;20029;-87
2021/08/27 10:45:42;;;;;;;6.50;2.10;;;22.30;68.80;;;;;;4883729;29;20029;-87
2021/08/27 10:48:12;;;;;;;5.22;2.05;;;22.40;67.90;;;;;;4867752;29;20073;-87
2021/08/27 10:50:41;;;;;;;3.10;2.58;;;23.30;68.30;;;;;;4887430;29;20029;-88
2021/08/27 10:53:21;;;;;;;3.42;1.98;;;23.20;66.20;;;;;;4912092;29;20131;-91
2021/08/27 10:55:47;;;;;;;5.65;2.15;;;23.10;64.50;;;;;;4905435;29;20070;-91
2021/08/27 10:58:15;;;;;;;3.85;2.00;;;22.80;64.00;;;;;;4891306;29;20076;-92
2021/08/27 11:00:52;;;;;;;5.05;1.95;;;22.50;64.80;;;;;;4912870;29;20092;-90
2021/08/27 11:03:21;;;;;;;4.30;2.10;;;22.70;65.90;;;;;;4892842;29;20056;-90
2021/08/27 11:05:48;;;;;;;6.82;2.28;;;22.40;66.30;;;;;;4903563;29;20040;-87
2021/08/27 11:08:17;;;;;;;3.88;2.03;;;22.60;66.00;;;;;;4902406;29;20031;-88
2021/08/27 11:11:04;;;;;;;5.93;2.13;;;22.40;66.40;;;;;;4884675;29;20226;-87
2021/08/27 11:13:38;;;;;;;4.32;2.00;;;22.40;67.00;;;;;;4885458;29;20021;-87
2021/08/27 11:16:36;;;;;;;3.03;1.65;;;22.30;67.00;;;;;;4883848;29;20033;-88
2021/08/27 11:19:25;;;;;;;5.80;2.10;;;22.20;66.40;;;;;;4876273;29;20033;-94
2021/08/27 11:21:56;;;;;;;3.75;1.83;;;22.10;65.70;;;;;;4869394;29;20137;-94
2021/08/27 11:24:26;;;;;;;4.70;1.77;;;21.50;65.10;;;;;;4887683;29;20033;-90
2021/08/27 11:27:01;;;;;;;8.00;3.92;;;21.80;66.00;;;;;;4889410;29;20025;-88
2021/08/27 11:29:40;;;;;;;3.40;1.90;;;21.70;66.20;;;;;;4899042;29;20039;-89
2021/08/27 11:32:10;;;;;;;3.03;1.95;;;21.70;66.90;;;;;;4882936;29;20033;-90
2021/08/27 11:34:55;;;;;;;4.10;1.52;;;21.80;67.00;;;;;;4882456;29;20603;-88
2021/08/27 11:37:22;;;;;;;2.83;1.80;;;21.90;66.50;;;;;;4881632;29;20017;-90
2021/08/27 11:39:49;;;;;;;4.38;1.70;;;22.00;64.10;;;;;;4882760;29;20197;-86
2021/08/27 11:42:20;;;;;;;2.05;1.50;;;21.90;63.30;;;;;;4877225;29;20094;-87
2021/08/27 11:45:10;;;;;;;3.00;1.60;;;21.60;63.60;;;;;;4881619;29;20037;-88
2021/08/27 11:47:51;;;;;;;3.97;1.90;;;21.80;63.90;;;;;;4864131;29;20090;-87
2021/08/27 11:50:33;;;;;;;3.60;1.70;;;22.00;65.50;;;;;;4848350;29;20040;-87
2021/08/27 11:53:00;;;;;;;4.25;2.10;;;22.30;65.20;;;;;;4847586;29;20033;-87
2021/08/27 11:55:28;;;;;;;4.28;2.17;;;22.30;64.50;;;;;;4862597;29;20026;-87
2021/08/27 11:57:58;;;;;;;6.00;2.30;;;22.50;65.30;;;;;;4862650;29;20467;-87
2021/08/27 12:00:35;;;;;;;4.43;1.85;;;22.60;64.70;;;;;;4862727;29;20040;-88
2021/08/27 12:03:01;;;;;;;4.30;1.85;;;22.70;64.10;;;;;;4889589;29;20064;-88
2021/08/27 12:05:28;;;;;;;5.18;1.90;;;22.70;63.00;;;;;;4865907;29;20401;-87
2021/08/27 12:07:58;;;;;;;2.25;1.50;;;22.60;62.50;;;;;;4881269;29;20133;-87
2021/08/27 12:10:27;;;;;;;2.20;1.60;;;22.60;61.70;;;;;;4880759;29;20401;-86
2021/08/27 12:12:54;;;;;;;6.07;1.88;;;22.50;60.80;;;;;;4881130;29;20607;-88
2021/08/27 12:15:22;;;;;;;2.55;1.35;;;22.50;61.20;;;;;;4881562;29;20062;-87
2021/08/27 12:17:59;;;;;;;3.10;1.40;;;22.30;61.20;;;;;;4865808;29;20060;-86
2021/08/27 12:20:49;;;;;;;3.30;1.67;;;22.20;60.00;;;;;;4881998;29;20378;-87
2021/08/27 12:23:19;;;;;;;2.33;1.40;;;22.10;60.10;;;;;;4873120;29;20076;-86
2021/08/27 12:25:58;;;;;;;3.60;1.70;;;22.30;60.50;;;;;;4880827;29;20024;-87
2021/08/27 12:28:38;;;;;;;3.08;1.52;;;22.30;61.80;;;;;;4883363;29;20096;-86
2021/08/27 12:31:06;;;;;;;3.95;1.38;;;22.80;61.50;;;;;;4881013;29;20029;-87
2021/08/27 12:33:39;;;;;;;2.85;1.80;;;23.70;61.00;;;;;;4865360;29;20064;-87
2021/08/27 12:36:06;;;;;;;1.13;1.08;;;23.60;60.00;;;;;;4889966;29;20357;-87
2021/08/27 12:38:37;;;;;;;3.63;1.80;;;24.10;58.00;;;;;;4899959;29;20032;-87
2021/08/27 12:41:22;;;;;;;4.47;2.00;;;23.50;56.80;;;;;;4898951;29;20029;-87
2021/08/27 12:43:52;;;;;;;2.67;1.85;;;23.50;57.90;;;;;;4899398;29;20496;-87
2021/08/27 12:46:29;;;;;;;4.28;1.90;;;23.70;58.60;;;;;;4899348;29;20093;-87
2021/08/27 12:49:14;;;;;;;2.83;1.70;;;24.20;59.50;;;;;;4898451;29;20036;-87
2021/08/27 12:51:45;;;;;;;4.65;1.77;;;25.30;61.60;;;;;;4898214;29;20489;-87
2021/08/27 12:54:12;;;;;;;1.80;1.40;;;26.80;61.30;;;;;;4899671;29;20389;-88
2021/08/27 12:56:37;;;;;;;3.15;1.40;;;27.60;56.60;;;;;;4899137;29;20127;-87
2021/08/27 12:59:18;;;;;;;2.20;1.52;;;28.00;56.80;;;;;;4898781;29;20060;-87
2021/08/27 13:01:46;;;;;;;1.65;1.20;;;28.60;54.40;;;;;;4898534;29;20040;-88
2021/08/27 13:04:12;;;;;;;1.67;1.48;;;28.70;51.40;;;;;;4884416;29;20396;-88
2021/08/27 13:06:39;;;;;;;2.97;1.80;;;28.60;50.10;;;;;;4898587;29;20028;-87
2021/08/27 13:09:04;;;;;;;1.67;1.50;;;28.70;50.90;;;;;;4898460;29;20028;-88
2021/08/27 13:11:51;;;;;;;2.75;1.48;;;29.60;54.30;;;;;;4899110;29;20028;-88
2021/08/27 13:14:38;;;;;;;2.53;1.60;;;30.60;52.20;;;;;;4898826;29;20036;-88
2021/08/27 13:17:18;;;;;;;1.45;0.98;;;30.60;49.40;;;;;;4882890;29;20061;-87
2021/08/27 13:19:47;;;;;;;4.40;1.73;;;30.60;47.50;;;;;;4898992;29;20033;-88
2021/08/27 13:22:20;;;;;;;1.33;1.23;;;29.50;44.50;;;;;;4898655;29;20048;-87
2021/08/27 13:25:08;;;;;;;1.45;1.27;;;28.50;43.60;;;;;;4898678;29;20031;-88
2021/08/27 13:27:42;;;;;;;2.28;1.60;;;27.10;44.10;;;;;;4884119;29;20068;-88
2021/08/27 13:30:14;;;;;;;0.93;0.80;;;25.90;44.60;;;;;;4884616;29;20032;-87
2021/08/27 13:32:44;;;;;;;2.13;1.45;;;24.80;46.60;;;;;;4885362;29;20052;-87
2021/08/27 13:35:13;;;;;;;3.45;1.58;;;23.80;47.50;;;;;;4900714;29;20473;-88
2021/08/27 13:37:43;;;;;;;1.98;1.50;;;23.40;49.40;;;;;;4886027;29;20025;-88
2021/08/27 13:40:10;;;;;;;4.70;1.90;;;22.10;51.10;;;;;;4883138;29;20021;-88
2021/08/27 13:42:37;;;;;;;2.83;1.80;;;21.70;53.60;;;;;;4882108;29;20442;-87
2021/08/27 13:45:04;;;;;;;3.20;2.05;;;22.00;55.50;;;;;;4881084;29;20410;-88
2021/08/27 13:47:30;;;;;;;4.97;2.00;;;21.40;56.90;;;;;;4865534;29;20032;-88
2021/08/27 13:49:55;;;;;;;2.67;1.98;;;21.60;58.40;;;;;;4881437;29;20029;-88
2021/08/27 13:52:21;;;;;;;4.07;1.90;;;21.80;59.40;;;;;;4896281;29;20045;-87
2021/08/27 13:54:49;;;;;;;5.28;1.92;;;22.30;59.40;;;;;;4882221;29;20381;-88
2021/08/27 13:57:15;;;;;;;2.78;1.70;;;22.90;61.20;;;;;;4881261;29;20048;-88
2021/08/27 13:59:43;;;;;;;3.33;1.77;;;23.80;62.40;;;;;;4896454;29;20411;-88
2021/08/27 14:02:12;;;;;;;2.85;1.90;;;25.40;63.40;;;;;;4896638;29;20076;-87
2021/08/27 14:04:38;;;;;;;3.05;1.77;;;26.70;62.90;;;;;;4881971;29;20422;-88
2021/08/27 14:07:04;;;;;;;3.72;1.67;;;27.80;59.60;;;;;;4880292;29;20443;-88
2021/08/27 14:09:30;;;;;;;3.65;1.73;;;28.30;53.60;;;;;;4890105;29;20043;-88
2021/08/27 14:11:56;;;;;;;1.95;1.50;;;28.20;52.20;;;;;;4884556;29;20485;-88
2021/08/27 14:14:21;;;;;;;2.20;1.35;;;28.00;52.10;;;;;;4885690;29;20033;-90
2021/08/27 14:16:47;;;;;;;3.53;1.90;;;28.90;54.60;;;;;;4901080;29;20040;-89
2021/08/27 14:19:12;;;;;;;2.03;1.45;;;30.10;59.70;;;;;;4885949;29;20029;-90
2021/08/27 14:21:40;;;;;;;3.22;1.80;;;31.90;52.90;;;;;;4916234;29;20032;-88
2021/08/27 14:24:09;;;;;;;3.28;1.50;;;31.70;47.40;;;;;;4886049;29;20037;-89
2021/08/27 14:26:34;;;;;;;3.70;1.77;;;31.10;46.20;;;;;;4901337;29;20032;-90
2021/08/27 14:29:00;;;;;;;6.13;1.67;;;30.20;45.30;;;;;;4900699;29;20067;-90
2021/08/27 14:31:32;;;;;;;3.00;1.50;;;29.50;46.20;;;;;;4901619;29;20028;-89
2021/08/27 14:33:58;;;;;;;1.45;1.00;;;28.70;46.00;;;;;;4886975;29;20051;-89
2021/08/27 14:36:25;;;;;;;2.20;1.42;;;28.00;46.30;;;;;;4879117;29;20025;-89
2021/08/27 14:38:51;;;;;;;1.20;1.10;;;27.60;47.10;;;;;;4881651;29;20037;-88
2021/08/27 14:41:17;;;;;;;1.40;1.30;;;27.30;47.50;;;;;;4882315;29;20029;-88
2021/08/27 14:43:43;;;;;;;2.40;1.50;;;26.80;46.00;;;;;;4880432;29;20086;-88
2021/08/27 14:46:10;;;;;;;3.30;1.48;;;26.40;46.80;;;;;;4865528;29;20025;-89
2021/08/27 14:48:36;;;;;;;2.90;1.40;;;26.20;47.10;;;;;;4881956;29;20041;-88
2021/08/27 14:51:01;;;;;;;4.05;1.50;;;25.90;46.90;;;;;;4881019;29;20029;-87
2021/08/27 14:53:28;;;;;;;1.38;1.27;;;24.60;47.70;;;;;;4880906;29;20470;-89
2021/08/27 14:55:54;;;;;;;3.05;1.58;;;25.60;46.80;;;;;;4879843;29;20041;-88
2021/08/27 14:58:20;;;;;;;2.65;1.50;;;25.20;46.60;;;;;;4863849;29;20382;-88
2021/08/27 15:00:45;;;;;;;2.28;1.50;;;24.80;47.00;;;;;;4862743;29;20378;-88
2021/08/27 15:03:11;;;;;;;1.20;1.05;;;24.70;48.30;;;;;;4879241;29;20447;-88
2021/08/27 15:05:39;;;;;;;1.70;1.05;;;24.70;47.70;;;;;;4881684;29;20029;-88
2021/08/27 15:08:08;;;;;;;1.55;1.20;;;24.60;47.10;;;;;;4882106;29;20029;-88
2021/08/27 15:10:34;;;;;;;2.00;1.25;;;24.40;47.20;;;;;;4898173;29;20047;-87
2021/08/27 15:13:03;;;;;;;2.92;1.70;;;24.80;49.40;;;;;;4915855;29;20040;-88
2021/08/27 15:15:34;;;;;;;1.15;1.13;;;25.70;48.90;;;;;;4884430;29;20031;-87
2021/08/27 15:18:00;;;;;;;2.15;1.50;;;26.70;46.80;;;;;;4884518;29;20473;-88
2021/08/27 15:20:28;;;;;;;3.20;1.27;;;26.60;44.00;;;;;;4899894;29;20029;-88
2021/08/27 15:22:58;;;;;;;3.58;1.48;;;26.30;44.00;;;;;;4884435;29;20043;-88
2021/08/27 15:25:29;;;;;;;1.73;1.30;;;25.90;43.50;;;;;;4915044;29;20036;-88
2021/08/27 15:27:56;;;;;;;3.80;1.50;;;25.40;43.90;;;;;;4899809;29;20481;-88
2021/08/27 15:30:25;;;;;;;1.77;1.30;;;25.10;44.30;;;;;;4884179;29;20029;-87
2021/08/27 15:32:51;;;;;;;1.92;1.50;;;24.90;44.30;;;;;;4884390;29;20123;-87
2021/08/27 15:35:16;;;;;;;3.00;1.50;;;24.60;44.80;;;;;;4899825;29;20135;-87
2021/08/27 15:37:42;;;;;;;5.07;2.25;;;24.30;44.70;;;;;;4884074;29;20033;-88
2021/08/27 15:40:09;;;;;;;4.80;2.08;;;24.00;44.80;;;;;;4899969;29;20354;-88
2021/08/27 15:42:36;;;;;;;5.15;2.10;;;23.70;44.80;;;;;;4883978;29;20032;-88
2021/08/27 15:45:03;;;;;;;3.00;1.67;;;23.40;45.30;;;;;;4884666;29;20043;-88
2021/08/27 15:47:29;;;;;;;4.30;1.60;;;23.60;48.30;;;;;;4899983;29;20029;-88
2021/08/27 15:49:56;;;;;;;2.92;1.30;;;24.90;50.30;;;;;;4900894;29;20021;-88
2021/08/27 15:52:29;;;;;;;1.85;0.82;;;25.70;48.20;;;;;;4884170;29;20033;-88
2021/08/27 15:54:55;;;;;;;2.50;1.60;;;27.10;47.50;;;;;;4899715;29;20119;-88
2021/08/27 15:57:22;;;;;;;5.47;1.65;;;27.80;47.40;;;;;;4900187;29;20028;-89
2021/08/27 15:59:49;;;;;;;1.52;1.40;;;29.50;48.70;;;;;;4915620;29;20481;-90
2021/08/27 16:02:14;;;;;;;2.33;1.40;;;31.20;46.80;;;;;;4899595;29;20056;-91
2021/08/27 16:04:43;;;;;;;2.13;1.33;;;32.60;44.40;;;;;;4900063;29;20032;-90
2021/08/27 16:07:12;;;;;;;4.05;1.58;;;32.50;39.40;;;;;;4899578;29;20110;-90
2021/08/27 16:09:38;;;;;;;1.80;1.20;;;31.20;37.20;;;;;;4890430;29;20044;-91
2021/08/27 16:12:11;;;;;;;4.80;2.00;;;29.70;37.50;;;;;;4880980;29;20041;-89
2021/08/27 16:14:37;;;;;;;3.70;1.90;;;28.30;38.20;;;;;;4880266;29;20029;-89
2021/08/27 16:17:07;;;;;;;4.18;1.70;;;27.40;40.20;;;;;;4865906;29;20393;-89
2021/08/27 16:20:14;;;;;;;2.08;1.30;;;26.30;40.70;;;;;;4882877;29;20048;-89
2021/08/27 16:22:42;;;;;;;2.22;1.45;;;25.30;40.80;;;;;;4882535;29;20037;-88
2021/08/27 16:25:08;;;;;;;4.18;1.83;;;24.60;41.30;;;;;;4870055;29;20045;-88
2021/08/27 16:27:33;;;;;;;3.72;1.80;;;23.90;42.40;;;;;;4885548;29;20044;-88
2021/08/27 16:29:59;;;;;;;1.98;1.40;;;23.60;43.10;;;;;;4887314;29;20029;-88
2021/08/27 16:32:24;;;;;;;3.00;1.70;;;23.30;43.80;;;;;;4881840;29;20076;-88
2021/08/27 16:34:50;;;;;;;2.17;1.60;;;22.60;44.20;;;;;;4895866;29;20033;-87
2021/08/27 16:37:16;;;;;;;2.10;1.50;;;22.20;44.60;;;;;;4893562;29;20029;-88
2021/08/27 16:39:42;;;;;;;3.50;1.90;;;21.80;45.20;;;;;;4899099;29;20039;-88
2021/08/27 16:42:07;;;;;;;3.75;2.10;;;21.60;45.60;;;;;;4899051;29;20037;-88
2021/08/27 16:44:33;;;;;;;3.25;1.77;;;21.30;45.70;;;;;;4898785;29;20092;-87
2021/08/27 16:47:04;;;;;;;6.53;2.10;;;21.60;46.90;;;;;;4883020;29;20076;-88
2021/08/27 16:49:30;;;;;;;4.40;1.75;;;20.60;46.90;;;;;;4898684;29;20037;-88
2021/08/27 16:51:56;;;;;;;5.68;2.15;;;20.30;47.70;;;;;;4898610;29;20040;-88
2021/08/27 16:54:22;;;;;;;4.38;2.00;;;20.60;48.60;;;;;;4882730;29;20119;-88
2021/08/27 16:56:48;;;;;;;3.53;2.03;;;20.70;49.70;;;;;;4898920;29;20143;-88
2021/08/27 16:59:13;;;;;;;3.88;2.10;;;19.90;49.80;;;;;;4914430;29;20076;-87
2021/08/27 17:01:39;;;;;;;3.65;1.90;;;19.80;50.40;;;;;;4916853;29;20055;-87
2021/08/27 17:04:07;;;;;;;4.90;2.25;;;19.60;50.40;;;;;;4918446;29;20028;-88
2021/08/27 17:06:33;;;;;;;5.70;2.55;;;19.40;50.60;;;;;;4901231;29;20127;-87
2021/08/27 17:08:58;;;;;;;4.35;2.03;;;19.50;51.30;;;;;;4897374;29;20493;-88
2021/08/27 17:11:24;;;;;;;4.43;2.00;;;18.90;51.50;;;;;;4883008;29;20088;-88
2021/08/27 17:13:49;;;;;;;4.03;2.08;;;18.70;52.30;;;;;;4883020;29;20048;-88
2021/08/27 17:16:15;;;;;;;5.07;2.45;;;18.60;53.10;;;;;;4898221;29;20055;-88
2021/08/27 17:18:41;;;;;;;3.58;1.90;;;18.30;53.80;;;;;;4899951;29;20053;-87
2021/08/27 17:21:07;;;;;;;4.70;2.22;;;18.40;54.70;;;;;;4887737;29;20068;-89
2021/08/27 17:23:33;;;;;;;5.20;2.30;;;18.10;55.50;;;;;;4891223;29;20025;-88
2021/08/27 17:25:59;;;;;;;4.22;2.30;;;18.10;56.50;;;;;;4888425;29;20025;-88
2021/08/27 17:28:25;;;;;;;5.20;2.35;;;18.00;56.60;;;;;;4888667;29;20033;-89
2021/08/27 17:30:54;;;;;;;4.22;2.50;;;18.00;56.70;;;;;;4888629;29;20072;-88
2021/08/27 17:33:19;;;;;;;6.10;2.50;;;17.90;57.30;;;;;;4888634;29;20036;-88
2021/08/27 17:35:45;;;;;;;6.05;3.00;;;17.90;57.60;;;;;;4892991;29;20028;-94
2021/08/27 17:38:14;;;;;;;5.70;2.53;;;18.30;58.30;;;;;;4913877;29;20029;-85
2021/08/27 17:40:50;;;;;;;5.28;2.70;;;17.60;58.10;;;;;;4906668;29;20496;-93
2021/08/27 17:43:16;;;;;;;5.50;2.60;;;17.70;58.60;;;;;;4910249;29;20028;-92
2021/08/27 17:45:43;;;;;;;7.55;3.10;;;17.70;59.30;;;;;;4912312;29;20024;-89
2021/08/27 17:48:08;;;;;;;5.82;2.78;;;17.70;60.00;;;;;;4911861;29;20037;-93
2021/08/27 17:50:34;;;;;;;6.60;3.25;;;18.10;60.20;;;;;;4918325;29;20024;-91
2021/08/27 17:53:01;;;;;;;6.72;3.10;;;18.00;60.50;;;;;;4916114;29;20059;-93
2021/08/27 17:55:28;;;;;;;8.18;2.92;;;17.60;60.50;;;;;;4913901;29;20095;-91
2021/08/27 17:57:54;;;;;;;8.23;3.15;;;17.60;61.00;;;;;;4912656;29;20040;-92
2021/08/27 18:00:22;;;;;;;6.45;3.03;;;17.50;61.10;;;;;;4895799;29;20037;-92
2021/08/27 18:02:49;;;;;;;7.25;2.97;;;17.50;61.30;;;;;;4905238;29;20141;-91
2021/08/27 18:05:14;;;;;;;8.70;3.35;;;18.00;62.10;;;;;;4885973;29;20098;-89
2021/08/27 18:07:40;;;;;;;8.02;3.40;;;17.40;62.30;;;;;;4901738;29;20029;-94